createdAt,value
2016-10-03T00:00:16.500Z,11.62
2016-10-03T00:01:16.818Z,11.63
2016-10-03T00:02:16.531Z,11.58
2016-10-03T00:03:16.228Z,11.58
2016-10-03T00:04:16.569Z,11.44
2016-10-03T00:05:16.901Z,11.44
2016-10-03T00:06:16.362Z,11.34
2016-10-03T00:07:16.669Z,11.34
2016-10-03T00:08:16.649Z,11.25
2016-10-03T00:09:16.667Z,11.27
2016-10-03T00:10:16.460Z,11.18
2016-10-03T00:11:16.707Z,11.15
2016-10-03T00:12:16.779Z,11.07
2016-10-03T00:13:16.749Z,11.05
2016-10-03T00:14:16.445Z,10.92
2016-10-03T00:15:17.099Z,11
2016-10-03T00:16:17.121Z,10.87
2016-10-03T00:17:16.830Z,10.95
2016-10-03T00:18:16.838Z,10.89
2016-10-03T00:19:16.865Z,10.71
2016-10-03T00:20:17.187Z,10.8
2016-10-03T00:21:16.897Z,10.71
2016-10-03T00:22:17.285Z,10.68
2016-10-03T00:23:16.640Z,10.72
2016-10-03T00:24:17.252Z,10.76
2016-10-03T00:25:17.314Z,10.72
2016-10-03T00:26:16.692Z,10.64
2016-10-03T00:27:17.107Z,10.62
2016-10-03T00:28:17.345Z,10.67
2016-10-03T00:29:17.080Z,10.61
2016-10-03T00:30:17.067Z,10.59
2016-10-03T00:31:17.411Z,10.57
2016-10-03T00:35:17.489Z,10.45
2016-10-03T00:36:17.501Z,10.39
2016-10-03T00:37:17.211Z,10.41
2016-10-03T00:38:17.230Z,10.3
2016-10-03T00:39:17.549Z,10.41
2016-10-03T00:40:17.268Z,10.25
2016-10-03T00:41:17.589Z,10.27
2016-10-03T00:42:17.309Z,10.34
2016-10-03T00:43:17.634Z,10.24
2016-10-03T00:44:17.641Z,10.21
2016-10-03T00:45:17.731Z,10.17
2016-10-03T00:46:17.391Z,10.23
2016-10-03T00:47:17.718Z,10.23
2016-10-03T00:48:17.095Z,10.18
2016-10-03T00:49:17.436Z,10.1
2016-10-03T00:50:17.748Z,10.1
2016-10-03T00:51:17.481Z,10.17
2016-10-03T00:52:17.801Z,10.09
2016-10-03T00:53:17.839Z,10.07
2016-10-03T00:54:17.539Z,10.07
2016-10-03T00:55:17.558Z,10.02
2016-10-03T00:56:17.880Z,10.05
2016-10-03T00:57:17.582Z,9.94
2016-10-03T00:58:17.607Z,10
2016-10-03T00:59:17.618Z,9.94
2016-10-03T01:00:17.670Z,9.92
2016-10-03T01:01:17.668Z,10.03
2016-10-03T01:02:17.676Z,9.94
2016-10-03T01:03:17.700Z,10.03
2016-10-03T01:04:17.715Z,10.03
2016-10-03T01:05:18.089Z,9.97
2016-10-03T01:06:17.753Z,9.94
2016-10-03T01:07:18.085Z,9.92
2016-10-03T01:08:17.801Z,9.94
2016-10-03T01:09:18.129Z,10.02
2016-10-03T01:10:18.190Z,10.05
2016-10-03T01:11:18.147Z,10.05
2016-10-03T01:12:17.916Z,10.03
2016-10-03T01:13:18.253Z,9.99
2016-10-03T01:14:17.581Z,10.02
2016-10-03T01:15:17.939Z,10.06
2016-10-03T01:16:18.289Z,10.09
2016-10-03T01:17:17.963Z,10.02
2016-10-03T01:18:18.361Z,10.05
2016-10-03T01:19:18.306Z,10.06
2016-10-03T01:20:18.390Z,10.09
2016-10-03T01:21:18.081Z,9.99
2016-10-03T01:22:18.375Z,10.13
2016-10-03T01:23:17.757Z,10.1
2016-10-03T01:24:18.412Z,10.13
2016-10-03T01:25:18.173Z,10.09
2016-10-03T01:26:18.187Z,10.02
2016-10-03T01:27:18.580Z,10.09
2016-10-03T01:28:18.501Z,9.99
2016-10-03T01:29:18.505Z,10.03
2016-10-03T01:30:18.257Z,10.05
2016-10-03T01:31:18.299Z,9.9
2016-10-03T01:32:18.247Z,9.95
2016-10-03T01:33:18.269Z,10.02
2016-10-03T01:34:18.290Z,10.07
2016-10-03T01:35:18.605Z,10.03
2016-10-03T01:36:18.334Z,9.92
2016-10-03T01:37:18.387Z,9.95
2016-10-03T01:38:18.661Z,9.97
2016-10-03T01:39:18.797Z,9.84
2016-10-03T01:40:18.701Z,9.82
2016-10-03T01:41:18.432Z,9.82
2016-10-03T01:42:18.790Z,9.84
2016-10-03T01:43:18.487Z,9.77
2016-10-03T01:44:18.456Z,9.77
2016-10-03T01:45:18.537Z,9.73
2016-10-03T01:46:18.499Z,9.69
2016-10-03T01:47:18.845Z,9.73
2016-10-03T01:48:18.850Z,9.76
2016-10-03T01:49:18.869Z,9.76
2016-10-03T01:50:18.585Z,9.73
2016-10-03T01:51:18.888Z,9.74
2016-10-03T01:52:19.038Z,9.74
2016-10-03T01:53:18.951Z,9.87
2016-10-03T01:54:18.417Z,9.85
2016-10-03T01:55:18.676Z,9.94
2016-10-03T01:56:18.693Z,9.88
2016-10-03T01:57:18.728Z,9.91
2016-10-03T01:58:19.040Z,9.9
2016-10-03T01:59:18.751Z,9.85
2016-10-03T02:00:19.055Z,10
2016-10-03T02:01:19.090Z,9.92
2016-10-03T02:02:18.790Z,9.95
2016-10-03T02:03:19.120Z,9.97
2016-10-03T02:04:19.150Z,10.05
2016-10-03T02:05:19.260Z,10.07
2016-10-03T02:06:19.198Z,10.12
2016-10-03T02:07:19.000Z,10.21
2016-10-03T02:08:19.220Z,10.34
2016-10-03T02:09:18.934Z,10.28
2016-10-03T02:10:19.285Z,10.38
2016-10-03T02:11:19.272Z,10.42
2016-10-03T02:12:18.691Z,10.43
2016-10-03T02:13:19.311Z,10.49
2016-10-03T02:14:19.023Z,10.57
2016-10-03T02:15:19.350Z,10.58
2016-10-03T02:16:19.368Z,10.64
2016-10-03T02:17:18.765Z,10.58
2016-10-03T02:18:19.439Z,10.62
2016-10-03T02:19:18.817Z,10.75
2016-10-03T02:20:19.548Z,10.71
2016-10-03T02:21:19.148Z,10.65
2016-10-03T02:22:18.864Z,10.72
2016-10-03T02:23:18.877Z,10.71
2016-10-03T02:24:19.526Z,10.77
2016-10-03T02:25:19.540Z,10.77
2016-10-03T02:26:18.938Z,10.76
2016-10-03T02:27:19.588Z,10.76
2016-10-03T02:28:19.593Z,10.8
2016-10-03T02:29:19.619Z,10.83
2016-10-03T02:30:19.328Z,10.87
2016-10-03T02:31:19.363Z,10.94
2016-10-03T02:32:19.662Z,10.94
2016-10-03T02:33:19.381Z,10.86
2016-10-03T02:34:19.397Z,10.9
2016-10-03T02:35:19.108Z,10.89
2016-10-03T02:36:19.131Z,10.86
2016-10-03T02:37:19.771Z,10.94
2016-10-03T02:38:19.166Z,10.95
2016-10-03T02:39:19.503Z,10.98
2016-10-03T02:40:19.508Z,10.95
2016-10-03T02:41:19.532Z,11.07
2016-10-03T02:42:19.546Z,11.02
2016-10-03T02:43:19.890Z,11.15
2016-10-03T02:44:19.894Z,11.16
2016-10-03T02:45:19.597Z,11.22
2016-10-03T02:46:19.627Z,11.2
2016-10-03T02:47:19.657Z,11.18
2016-10-03T02:48:19.666Z,11.19
2016-10-03T02:49:19.691Z,11.26
2016-10-03T02:50:19.696Z,11.27
2016-10-03T02:51:19.706Z,11.27
2016-10-03T02:52:19.736Z,11.22
2016-10-03T02:53:20.081Z,11.33
2016-10-03T02:54:20.076Z,11.34
2016-10-03T02:55:19.793Z,11.33
2016-10-03T02:56:19.936Z,11.25
2016-10-03T02:57:19.831Z,11.33
2016-10-03T02:58:20.218Z,11.31
2016-10-03T02:59:19.565Z,11.22
2016-10-03T03:00:19.889Z,11.34
2016-10-03T03:01:20.209Z,11.16
2016-10-03T03:02:20.306Z,11.23
2016-10-03T03:03:20.268Z,11.22
2016-10-03T03:04:20.274Z,11.35
2016-10-03T03:05:20.305Z,11.3
2016-10-03T03:06:20.006Z,11.33
2016-10-03T03:07:20.333Z,11.31
2016-10-03T03:08:20.049Z,11.3
2016-10-03T03:09:20.387Z,11.4
2016-10-03T03:10:20.084Z,11.3
2016-10-03T03:11:20.103Z,11.34
2016-10-03T03:12:20.498Z,11.37
2016-10-03T03:13:20.255Z,11.37
2016-10-03T03:14:20.172Z,11.38
2016-10-03T03:15:20.195Z,11.37
2016-10-03T03:16:20.519Z,11.37
2016-10-03T03:17:20.745Z,11.35
2016-10-03T03:18:20.546Z,11.38
2016-10-03T03:19:20.569Z,11.48
2016-10-03T03:20:20.284Z,11.4
2016-10-03T03:21:20.298Z,11.35
2016-10-03T03:22:20.323Z,11.41
2016-10-03T03:23:20.395Z,11.44
2016-10-03T03:24:20.057Z,11.48
2016-10-03T03:25:20.734Z,11.43
2016-10-03T03:26:20.398Z,11.45
2016-10-03T03:27:20.104Z,11.43
2016-10-03T03:28:20.950Z,11.43
2016-10-03T03:29:20.760Z,11.48
2016-10-03T03:30:20.472Z,11.49
2016-10-03T03:31:20.807Z,11.55
2016-10-03T03:32:20.304Z,11.58
2016-10-03T03:33:20.224Z,11.51
2016-10-03T03:34:20.568Z,11.51
2016-10-03T03:35:20.572Z,11.6
2016-10-03T03:36:20.993Z,11.58
2016-10-03T03:37:20.415Z,11.51
2016-10-03T03:38:20.728Z,11.58
2016-10-03T03:39:20.643Z,11.51
2016-10-03T03:40:20.725Z,11.45
2016-10-03T03:41:20.824Z,11.44
2016-10-03T03:42:20.713Z,11.44
2016-10-03T03:43:21.047Z,11.41
2016-10-03T03:44:20.432Z,11.38
2016-10-03T03:45:21.068Z,11.37
2016-10-03T03:46:20.783Z,11.44
2016-10-03T03:47:20.905Z,11.37
2016-10-03T03:48:20.802Z,11.34
2016-10-03T03:49:20.926Z,11.34
2016-10-03T03:50:20.848Z,11.37
2016-10-03T03:51:21.200Z,11.3
2016-10-03T03:52:20.891Z,11.34
2016-10-03T03:53:21.214Z,11.3
2016-10-03T03:54:20.635Z,11.27
2016-10-03T03:55:20.961Z,11.22
2016-10-03T03:56:21.293Z,11.25
2016-10-03T03:57:21.303Z,11.23
2016-10-03T03:58:21.313Z,11.22
2016-10-03T03:59:20.731Z,11.15
2016-10-03T04:00:20.872Z,11.2
2016-10-03T04:01:21.374Z,11.1
2016-10-03T04:02:20.822Z,11.12
2016-10-03T04:03:21.434Z,11.18
2016-10-03T04:04:21.185Z,11.13
2016-10-03T04:05:21.158Z,11.12
2016-10-03T04:06:20.861Z,11.1
2016-10-03T04:07:21.505Z,11.08
2016-10-03T04:08:21.193Z,10.98
2016-10-03T04:09:21.229Z,11.12
2016-10-03T04:10:21.553Z,10.97
2016-10-03T04:11:20.954Z,11.02
2016-10-03T04:12:21.274Z,11.01
2016-10-03T04:13:21.293Z,11
2016-10-03T04:14:21.316Z,11.04
2016-10-03T04:15:21.026Z,11.02
2016-10-03T04:16:21.355Z,10.98
2016-10-03T04:17:21.695Z,11.02
2016-10-03T04:18:21.404Z,10.95
2016-10-03T04:19:21.412Z,11.05
2016-10-03T04:20:21.434Z,10.92
2016-10-03T04:21:21.776Z,11.05
2016-10-03T04:22:21.474Z,11.05
2016-10-03T04:23:21.503Z,10.98
2016-10-03T04:24:21.808Z,11.01
2016-10-03T04:25:21.532Z,10.95
2016-10-03T04:26:21.542Z,10.97
2016-10-03T04:27:21.883Z,11
2016-10-03T04:28:21.595Z,10.98
2016-10-03T04:29:21.915Z,10.97
2016-10-03T04:30:21.631Z,10.95
2016-10-03T04:31:21.651Z,11
2016-10-03T04:32:21.975Z,10.94
2016-10-03T04:33:21.983Z,10.94
2016-10-03T04:34:22.033Z,10.94
2016-10-03T04:35:21.736Z,11
2016-10-03T04:36:21.433Z,10.94
2016-10-03T04:37:21.758Z,10.98
2016-10-03T04:38:21.470Z,10.9
2016-10-03T04:39:21.817Z,11.01
2016-10-03T04:40:21.511Z,11.04
2016-10-03T04:41:22.156Z,11.04
2016-10-03T04:42:21.855Z,11.02
2016-10-03T04:43:21.886Z,11.05
2016-10-03T04:44:22.215Z,10.98
2016-10-03T04:45:22.235Z,11.02
2016-10-03T04:46:21.933Z,10.95
2016-10-03T04:47:22.271Z,11.04
2016-10-03T04:48:21.976Z,10.98
2016-10-03T04:49:22.293Z,11.05
2016-10-03T04:50:21.704Z,10.92
2016-10-03T04:51:22.038Z,10.97
2016-10-03T04:52:22.412Z,10.84
2016-10-03T04:53:22.068Z,10.9
2016-10-03T04:54:21.775Z,10.89
2016-10-03T04:55:22.427Z,10.87
2016-10-03T04:56:22.132Z,10.9
2016-10-03T04:57:22.136Z,10.87
2016-10-03T04:58:22.171Z,10.89
2016-10-03T04:59:22.508Z,10.89
2016-10-03T05:00:22.316Z,10.9
2016-10-03T05:01:21.969Z,10.9
2016-10-03T05:02:22.296Z,10.89
2016-10-03T05:03:22.257Z,10.92
2016-10-03T05:04:22.945Z,10.87
2016-10-03T05:05:22.152Z,10.98
2016-10-03T05:06:22.728Z,10.98
2016-10-03T05:07:22.961Z,10.95
2016-10-03T05:08:22.999Z,10.98
2016-10-03T05:09:22.876Z,10.97
2016-10-03T05:10:22.645Z,10.89
2016-10-03T05:11:23.028Z,11
2016-10-03T05:12:22.446Z,10.95
2016-10-03T05:13:22.628Z,10.95
2016-10-03T05:14:22.936Z,11.04
2016-10-03T05:15:22.950Z,11.05
2016-10-03T05:16:22.630Z,11.1
2016-10-03T05:17:22.543Z,11.12
2016-10-03T05:18:22.930Z,11.02
2016-10-03T05:19:22.557Z,11.04
2016-10-03T05:20:22.960Z,11
2016-10-03T05:21:22.611Z,10.95
2016-10-03T05:22:22.618Z,11.02
2016-10-03T05:23:22.908Z,11.04
2016-10-03T05:24:22.662Z,11.05
2016-10-03T05:25:23.140Z,10.87
2016-10-03T05:26:22.711Z,10.86
2016-10-03T05:27:23.086Z,10.83
2016-10-03T05:28:23.051Z,10.79
2016-10-03T05:29:23.086Z,10.72
2016-10-03T05:30:23.099Z,10.72
2016-10-03T05:31:22.546Z,10.76
2016-10-03T05:32:23.132Z,10.62
2016-10-03T05:33:23.193Z,10.75
2016-10-03T05:34:22.840Z,10.76
2016-10-03T05:35:22.963Z,10.76
2016-10-03T05:36:22.879Z,10.69
2016-10-03T05:37:22.697Z,10.77
2016-10-03T05:38:22.933Z,10.72
2016-10-03T05:39:22.741Z,10.77
2016-10-03T05:40:22.975Z,10.71
2016-10-03T05:41:22.976Z,10.67
2016-10-03T05:42:22.938Z,10.75
2016-10-03T05:43:22.760Z,10.77
2016-10-03T05:44:23.292Z,10.68
2016-10-03T05:45:23.375Z,10.75
2016-10-03T05:46:22.948Z,10.79
2016-10-03T05:47:23.421Z,10.8
2016-10-03T05:48:23.222Z,10.72
2016-10-03T05:49:22.843Z,10.79
2016-10-03T05:50:23.212Z,10.76
2016-10-03T05:51:23.181Z,10.76
2016-10-03T05:52:23.192Z,10.64
2016-10-03T05:53:23.534Z,10.67
2016-10-03T05:54:23.238Z,10.72
2016-10-03T05:55:23.815Z,10.77
2016-10-03T05:56:23.294Z,10.75
2016-10-03T05:57:23.315Z,10.8
2016-10-03T05:58:23.624Z,10.79
2016-10-03T05:59:23.655Z,10.9
2016-10-03T06:00:23.654Z,10.9
2016-10-03T06:01:23.367Z,10.98
2016-10-03T06:02:23.078Z,11
2016-10-03T06:03:23.428Z,11.07
2016-10-03T06:04:23.719Z,11.02
2016-10-03T06:05:23.463Z,11.05
2016-10-03T06:06:23.460Z,11.12
2016-10-03T06:07:23.480Z,11.04
2016-10-03T06:08:23.513Z,11.01
2016-10-03T06:09:23.530Z,10.97
2016-10-03T06:10:23.230Z,10.97
2016-10-03T06:11:23.876Z,10.92
2016-10-03T06:12:23.977Z,10.97
2016-10-03T06:13:23.274Z,10.98
2016-10-03T06:14:23.610Z,10.94
2016-10-03T06:15:23.640Z,11.08
2016-10-03T06:16:23.669Z,11.05
2016-10-03T06:17:23.681Z,11.2
2016-10-03T06:18:23.394Z,11.19
2016-10-03T06:19:23.699Z,11.22
2016-10-03T06:20:23.740Z,11.26
2016-10-03T06:21:23.752Z,11.4
2016-10-03T06:22:23.462Z,11.31
2016-10-03T06:24:24.349Z,11.4
2016-10-03T06:25:24.150Z,11.38
2016-10-03T06:26:23.838Z,11.43
2016-10-03T06:27:24.197Z,11.51
2016-10-03T06:28:24.204Z,11.6
2016-10-03T06:29:23.607Z,11.34
2016-10-03T06:30:24.231Z,11.35
2016-10-03T06:31:23.631Z,11.38
2016-10-03T06:32:24.388Z,11.43
2016-10-03T06:33:24.084Z,11.41
2016-10-03T06:34:23.690Z,11.4
2016-10-03T06:35:24.394Z,11.6
2016-10-03T06:36:24.040Z,11.51
2016-10-03T06:37:24.372Z,11.74
2016-10-03T06:38:24.084Z,11.73
2016-10-03T06:39:24.408Z,11.78
2016-10-03T06:40:24.135Z,11.83
2016-10-03T06:41:24.452Z,12.05
2016-10-03T06:42:24.624Z,12.17
2016-10-03T06:43:24.484Z,12.14
2016-10-03T06:44:24.212Z,12.29
2016-10-03T06:45:24.697Z,12.48
2016-10-03T06:46:24.544Z,12.65
2016-10-03T06:47:23.943Z,12.73
2016-10-03T06:48:24.354Z,12.84
2016-10-03T06:49:24.652Z,12.8
2016-10-03T06:50:24.107Z,12.84
2016-10-03T06:51:24.037Z,12.84
2016-10-03T06:52:24.355Z,12.91
2016-10-03T06:53:24.374Z,12.9
2016-10-03T06:54:24.722Z,13.01
2016-10-03T06:55:24.423Z,12.99
2016-10-03T06:56:24.229Z,12.98
2016-10-03T06:57:24.585Z,13.02
2016-10-03T06:58:24.166Z,13.09
2016-10-03T06:59:24.548Z,13.19
2016-10-03T07:00:24.911Z,13.28
2016-10-03T07:01:24.541Z,13.36
2016-10-03T07:02:24.557Z,13.6
2016-10-03T07:03:25.001Z,13.76
2016-10-03T07:04:24.605Z,13.98
2016-10-03T07:05:24.656Z,14
2016-10-03T07:06:24.617Z,14.18
2016-10-03T07:07:24.636Z,14.38
2016-10-03T07:08:24.788Z,14.38
2016-10-03T07:09:24.709Z,14.43
2016-10-03T07:10:24.426Z,14.59
2016-10-03T07:11:24.758Z,14.61
2016-10-03T07:12:24.436Z,14.7
2016-10-03T07:13:24.551Z,14.71
2016-10-03T07:14:24.927Z,14.52
2016-10-03T07:15:24.916Z,14.49
2016-10-03T07:16:25.144Z,14.38
2016-10-03T07:17:24.872Z,14.41
2016-10-03T07:18:25.197Z,14.4
2016-10-03T07:19:24.595Z,14.36
2016-10-03T07:20:24.701Z,14.38
2016-10-03T07:21:24.931Z,14.37
2016-10-03T07:22:25.370Z,14.37
2016-10-03T07:23:24.691Z,14.49
2016-10-03T07:24:24.768Z,14.63
2016-10-03T07:25:25.531Z,14.86
2016-10-03T07:26:25.376Z,15.04
2016-10-03T07:27:24.765Z,15.02
2016-10-03T07:28:25.092Z,14.93
2016-10-03T07:29:25.425Z,14.86
2016-10-03T07:30:24.821Z,14.82
2016-10-03T07:31:25.623Z,14.7
2016-10-03T07:32:25.181Z,14.59
2016-10-03T07:33:25.211Z,14.59
2016-10-03T07:34:25.528Z,14.56
2016-10-03T07:35:25.629Z,14.36
2016-10-03T07:36:25.270Z,14.26
2016-10-03T07:37:25.603Z,14.23
2016-10-03T07:38:25.632Z,14.4
2016-10-03T07:39:25.631Z,14.33
2016-10-03T07:40:25.353Z,14.38
2016-10-03T07:41:25.362Z,14.33
2016-10-03T07:42:25.390Z,14.37
2016-10-03T07:43:25.729Z,14.48
2016-10-03T07:44:25.743Z,14.63
2016-10-03T07:45:25.462Z,14.74
2016-10-03T07:46:25.792Z,14.96
2016-10-03T07:47:25.800Z,14.92
2016-10-03T07:48:25.530Z,14.93
2016-10-03T07:49:25.229Z,14.97
2016-10-03T07:50:25.866Z,14.87
2016-10-03T07:51:25.578Z,14.86
2016-10-03T07:52:25.959Z,14.87
2016-10-03T07:53:25.629Z,14.81
2016-10-03T07:54:25.647Z,14.59
2016-10-03T07:55:25.731Z,14.58
2016-10-03T07:56:25.679Z,14.4
2016-10-03T07:57:25.407Z,14.45
2016-10-03T07:58:26.244Z,14.26
2016-10-03T07:59:25.745Z,14.25
2016-10-03T08:00:26.095Z,14.34
2016-10-03T08:01:25.788Z,14.36
2016-10-03T08:02:25.809Z,14.37
2016-10-03T08:03:26.155Z,14.43
2016-10-03T08:04:26.190Z,14.49
2016-10-03T08:05:26.208Z,14.55
2016-10-03T08:06:25.917Z,14.61
2016-10-03T08:07:26.076Z,14.7
2016-10-03T08:08:26.266Z,14.77
2016-10-03T08:09:25.664Z,14.79
2016-10-03T08:10:26.326Z,14.97
2016-10-03T08:11:26.249Z,15.04
2016-10-03T08:12:26.234Z,14.97
2016-10-03T08:13:26.616Z,14.93
2016-10-03T08:14:26.595Z,14.74
2016-10-03T08:15:26.613Z,14.71
2016-10-03T08:16:26.338Z,14.67
2016-10-03T08:17:25.981Z,14.61
2016-10-03T08:18:26.155Z,14.53
2016-10-03T08:19:26.393Z,14.45
2016-10-03T08:20:26.505Z,14.56
2016-10-03T08:21:26.620Z,14.52
2016-10-03T08:22:26.612Z,14.89
2016-10-03T08:23:26.632Z,15.12
2016-10-03T08:24:26.703Z,15.18
2016-10-03T08:25:26.356Z,15.3
2016-10-03T08:26:26.707Z,15.27
2016-10-03T08:27:26.342Z,15.19
2016-10-03T08:28:26.752Z,15.1
2016-10-03T08:29:26.397Z,14.99
2016-10-03T08:30:26.776Z,14.99
2016-10-03T08:31:26.490Z,14.94
2016-10-03T08:32:26.456Z,14.99
2016-10-03T08:33:26.955Z,14.99
2016-10-03T08:34:26.530Z,14.96
2016-10-03T08:35:26.530Z,14.96
2016-10-03T08:36:26.664Z,15.04
2016-10-03T08:37:26.916Z,15.15
2016-10-03T08:38:26.419Z,15.08
2016-10-03T08:39:26.302Z,15.1
2016-10-03T08:40:26.954Z,15.12
2016-10-03T08:41:27.001Z,14.97
2016-10-03T08:42:26.727Z,15.04
2016-10-03T08:43:26.931Z,15
2016-10-03T08:44:26.769Z,14.94
2016-10-03T08:45:26.490Z,14.97
2016-10-03T08:46:27.206Z,14.97
2016-10-03T08:47:27.219Z,14.94
2016-10-03T08:48:26.959Z,14.96
2016-10-03T08:49:27.238Z,14.96
2016-10-03T08:50:26.589Z,14.86
2016-10-03T08:51:27.291Z,14.87
2016-10-03T08:52:26.900Z,14.89
2016-10-03T08:53:26.909Z,14.99
2016-10-03T08:54:27.266Z,15.18
2016-10-03T08:55:27.020Z,15.33
2016-10-03T08:56:26.998Z,15.51
2016-10-03T08:57:27.008Z,15.57
2016-10-03T08:58:27.132Z,15.52
2016-10-03T08:59:27.717Z,15.7
2016-10-03T09:00:27.442Z,15.66
2016-10-03T09:01:26.793Z,15.85
2016-10-03T09:02:27.483Z,16.08
2016-10-03T09:03:26.811Z,16.22
2016-10-03T09:04:27.524Z,16.4
2016-10-03T09:05:27.229Z,16.62
2016-10-03T09:06:27.204Z,16.97
2016-10-03T09:07:27.228Z,17.31
2016-10-03T09:08:27.789Z,17.68
2016-10-03T09:09:27.276Z,17.79
2016-10-03T09:10:27.614Z,17.82
2016-10-03T09:11:27.694Z,17.75
2016-10-03T09:12:27.655Z,17.54
2016-10-03T09:13:27.552Z,17.3
2016-10-03T09:14:27.841Z,17.27
2016-10-03T09:15:27.822Z,17.02
2016-10-03T09:16:27.120Z,16.82
2016-10-03T09:17:27.461Z,16.69
2016-10-03T09:18:27.488Z,16.61
2016-10-03T09:19:27.561Z,16.37
2016-10-03T09:20:27.535Z,16.16
2016-10-03T09:21:27.865Z,16.02
2016-10-03T09:22:27.567Z,15.98
2016-10-03T09:23:27.596Z,15.88
2016-10-03T09:24:27.944Z,15.72
2016-10-03T09:25:27.636Z,15.72
2016-10-03T09:26:27.972Z,15.6
2016-10-03T09:27:27.706Z,15.35
2016-10-03T09:28:27.724Z,15.02
2016-10-03T09:29:28.047Z,14.97
2016-10-03T09:30:28.122Z,15.26
2016-10-03T09:31:28.096Z,15.52
2016-10-03T09:32:28.126Z,15.76
2016-10-03T09:33:27.522Z,15.85
2016-10-03T09:34:27.533Z,16.06
2016-10-03T09:35:28.173Z,16.25
2016-10-03T09:36:27.907Z,16.44
2016-10-03T09:37:27.915Z,16.54
2016-10-03T09:38:28.259Z,16.47
2016-10-03T09:39:28.299Z,16.43
2016-10-03T09:40:28.317Z,16.29
2016-10-03T09:41:28.028Z,16.39
2016-10-03T09:42:28.031Z,16.28
2016-10-03T09:43:28.084Z,16.18
2016-10-03T09:44:28.101Z,16.24
2016-10-03T09:45:28.538Z,16.18
2016-10-03T09:46:28.128Z,16.17
2016-10-03T09:47:28.552Z,15.94
2016-10-03T09:48:28.480Z,15.9
2016-10-03T09:49:28.528Z,15.87
2016-10-03T09:50:28.221Z,16.05
2016-10-03T09:51:28.548Z,16.08
2016-10-03T09:52:28.579Z,16.13
2016-10-03T09:53:28.289Z,16.21
2016-10-03T09:54:28.391Z,16.32
2016-10-03T09:55:28.324Z,16.59
2016-10-03T09:56:28.375Z,16.65
2016-10-03T09:57:28.805Z,16.83
2016-10-03T09:58:28.768Z,17.1
2016-10-03T09:59:28.843Z,17.28
2016-10-03T10:00:28.594Z,17.27
2016-10-03T10:01:28.155Z,17.34
2016-10-03T10:02:28.505Z,17.35
2016-10-03T10:03:28.835Z,17.19
2016-10-03T10:04:28.865Z,17.07
2016-10-03T10:05:28.876Z,16.97
2016-10-03T10:06:28.678Z,16.77
2016-10-03T10:07:28.735Z,16.44
2016-10-03T10:08:28.923Z,16.29
2016-10-03T10:09:28.975Z,16.47
2016-10-03T10:10:28.796Z,16.87
2016-10-03T10:11:28.717Z,17.16
2016-10-03T10:12:29.069Z,17.47
2016-10-03T10:13:28.494Z,17.65
2016-10-03T10:14:29.097Z,17.68
2016-10-03T10:15:29.102Z,17.95
2016-10-03T10:16:28.817Z,18.08
2016-10-03T10:17:28.914Z,18.12
2016-10-03T10:18:29.213Z,17.84
2016-10-03T10:19:28.913Z,17.56
2016-10-03T10:20:29.259Z,17.86
2016-10-03T10:21:29.279Z,18.15
2016-10-03T10:22:29.022Z,18.15
2016-10-03T10:23:29.402Z,18.12
2016-10-03T10:24:29.020Z,17.82
2016-10-03T10:25:29.376Z,17.63
2016-10-03T10:26:29.077Z,17.63
2016-10-03T10:27:29.401Z,17.31
2016-10-03T10:28:29.451Z,17.31
2016-10-03T10:29:29.465Z,17.2
2016-10-03T10:30:29.223Z,16.89
2016-10-03T10:31:29.507Z,16.89
2016-10-03T10:32:29.615Z,17.09
2016-10-03T10:33:29.551Z,17.3
2016-10-03T10:34:29.729Z,17.46
2016-10-03T10:35:29.289Z,17.39
2016-10-03T10:36:29.322Z,17.41
2016-10-03T10:37:29.346Z,17.73
2016-10-03T10:38:29.604Z,17.88
2016-10-03T10:39:29.396Z,17.86
2016-10-03T10:40:29.587Z,17.86
2016-10-03T10:41:29.732Z,17.78
2016-10-03T10:42:29.452Z,17.6
2016-10-03T10:43:29.489Z,17.47
2016-10-03T10:44:29.513Z,17.32
2016-10-03T10:45:29.530Z,17.04
2016-10-03T10:46:29.880Z,17.04
2016-10-03T10:47:29.881Z,17.31
2016-10-03T10:48:29.604Z,17.59
2016-10-03T10:49:29.944Z,17.76
2016-10-03T10:50:29.950Z,17.49
2016-10-03T10:51:29.669Z,17.38
2016-10-03T10:52:29.375Z,17.28
2016-10-03T10:53:30.039Z,17.12
2016-10-03T10:54:29.749Z,17.07
2016-10-03T10:55:30.087Z,17.17
2016-10-03T10:56:29.798Z,16.95
2016-10-03T10:57:29.802Z,16.97
2016-10-03T10:58:30.158Z,16.77
2016-10-03T10:59:29.864Z,16.92
2016-10-03T11:00:29.895Z,16.87
2016-10-03T11:01:30.227Z,17.09
2016-10-03T11:02:30.259Z,16.95
2016-10-03T11:03:30.279Z,17.19
2016-10-03T11:04:29.991Z,17.6
2016-10-03T11:05:30.342Z,17.66
2016-10-03T11:06:30.181Z,17.86
2016-10-03T11:07:30.054Z,18.13
2016-10-03T11:08:30.089Z,18.41
2016-10-03T11:09:30.428Z,18.68
2016-10-03T11:10:29.829Z,18.94
2016-10-03T11:11:30.469Z,18.64
2016-10-03T11:12:30.191Z,18.43
2016-10-03T11:13:30.207Z,17.82
2016-10-03T11:14:30.251Z,17.71
2016-10-03T11:15:30.562Z,17.59
2016-10-03T11:16:30.269Z,17.38
2016-10-03T11:17:30.662Z,17.22
2016-10-03T11:18:30.344Z,17.23
2016-10-03T11:19:30.649Z,17.57
2016-10-03T11:20:30.698Z,17.78
2016-10-03T11:21:30.381Z,17.98
2016-10-03T11:22:30.723Z,18.11
2016-10-03T11:23:30.601Z,18.08
2016-10-03T11:24:30.476Z,18.3
2016-10-03T11:25:30.533Z,18.16
2016-10-03T11:26:30.568Z,18.11
2016-10-03T11:27:30.591Z,18.13
2016-10-03T11:28:31.067Z,18.28
2016-10-03T11:29:30.908Z,18.31
2016-10-03T11:30:31.111Z,18.33
2016-10-03T11:31:30.957Z,18.34
2016-10-03T11:32:30.670Z,18.37
2016-10-03T11:33:30.676Z,18.52
2016-10-03T11:34:31.286Z,18.63
2016-10-03T11:35:30.434Z,18.66
2016-10-03T11:36:31.063Z,18.39
2016-10-03T11:37:30.689Z,18.11
2016-10-03T11:38:30.808Z,17.8
2016-10-03T11:39:31.246Z,17.65
2016-10-03T11:40:30.997Z,17.71
2016-10-03T11:41:31.256Z,17.6
2016-10-03T11:42:30.918Z,17.86
2016-10-03T11:43:30.928Z,17.88
2016-10-03T11:44:31.255Z,17.97
2016-10-03T11:45:31.287Z,18.13
2016-10-03T11:46:31.010Z,18.26
2016-10-03T11:47:31.331Z,18.33
2016-10-03T11:48:31.347Z,18.26
2016-10-03T11:49:31.509Z,18.16
2016-10-03T11:50:30.832Z,18.18
2016-10-03T11:51:31.232Z,18.06
2016-10-03T11:52:31.153Z,18.03
2016-10-03T11:53:31.181Z,17.82
2016-10-03T11:54:31.694Z,17.82
2016-10-03T11:55:30.905Z,18.05
2016-10-03T11:56:31.255Z,18.13
2016-10-03T11:57:31.584Z,18.21
2016-10-03T11:58:31.603Z,18.37
2016-10-03T11:59:31.314Z,18.31
2016-10-03T12:00:31.075Z,18.16
2016-10-03T12:01:31.355Z,18.12
2016-10-03T12:02:31.614Z,18.41
2016-10-03T12:03:31.415Z,18.52
2016-10-03T12:04:31.854Z,18.68
2016-10-03T12:05:31.794Z,18.81
2016-10-03T12:06:31.795Z,18.73
2016-10-03T12:07:31.515Z,18.67
2016-10-03T12:08:31.231Z,18.63
2016-10-03T12:09:31.875Z,18.61
2016-10-03T12:10:31.883Z,18.51
2016-10-03T12:11:31.974Z,18.33
2016-10-03T12:12:31.941Z,18.13
2016-10-03T12:13:31.344Z,17.97
2016-10-03T12:14:31.986Z,18
2016-10-03T12:15:32.013Z,17.78
2016-10-03T12:16:32.060Z,17.53
2016-10-03T12:17:31.764Z,17.56
2016-10-03T12:18:32.085Z,17.56
2016-10-03T12:19:32.115Z,17.71
2016-10-03T12:20:31.512Z,17.87
2016-10-03T12:21:31.863Z,17.9
2016-10-03T12:22:32.197Z,17.98
2016-10-03T12:23:32.208Z,18.09
2016-10-03T12:24:32.232Z,18.09
2016-10-03T12:25:32.255Z,17.93
2016-10-03T12:26:31.961Z,18.05
2016-10-03T12:27:31.992Z,17.94
2016-10-03T12:28:32.020Z,17.94
2016-10-03T12:29:32.365Z,17.73
2016-10-03T12:30:31.755Z,17.75
2016-10-03T12:31:32.104Z,17.91
2016-10-03T12:32:32.111Z,18.05
2016-10-03T12:33:32.133Z,18.18
2016-10-03T12:34:32.468Z,18.08
2016-10-03T12:35:32.209Z,17.86
2016-10-03T12:36:32.208Z,17.59
2016-10-03T12:37:32.229Z,17.75
2016-10-03T12:38:32.385Z,17.84
2016-10-03T12:39:32.594Z,17.56
2016-10-03T12:40:32.676Z,17.6
2016-10-03T12:41:32.330Z,17.65
2016-10-03T12:42:32.663Z,17.84
2016-10-03T12:43:32.703Z,17.76
2016-10-03T12:44:32.699Z,17.66
2016-10-03T12:45:32.741Z,17.6
2016-10-03T12:46:32.783Z,17.53
2016-10-03T12:47:32.774Z,17.6
2016-10-03T12:48:32.490Z,17.31
2016-10-03T12:49:32.518Z,17.35
2016-10-03T12:50:32.549Z,17.28
2016-10-03T12:51:32.895Z,17.27
2016-10-03T12:52:32.923Z,17.19
2016-10-03T12:53:32.923Z,17.3
2016-10-03T12:54:32.941Z,17.37
2016-10-03T12:55:32.671Z,17.34
2016-10-03T12:56:32.998Z,17.46
2016-10-03T12:57:33.043Z,17.54
2016-10-03T12:58:32.423Z,17.72
2016-10-03T12:59:33.151Z,17.76
2016-10-03T13:00:33.133Z,17.75
2016-10-03T13:01:32.817Z,17.84